Time;durP1;ratioP1;P1;durP2;ratioP2;P2;SDS_P1;SDS_P2;PMS_P1;PMS_P2;Temp;Humidity;BMP_temperature;BMP_pressure;BME280_temperature;BME280_humidity;BME280_pressure;Samples;Min_cycle;Max_cycle;Signal;HPM_P1;HPM_P2
2023/01/19 00:02:16;;;;;;;10.30;4.40;;;1.30;99.90;;;;;;5009704;28;20439;-83
2023/01/19 00:04:42;;;;;;;8.20;5.00;;;1.40;99.90;;;;;;5013707;28;20036;-84
2023/01/19 00:07:07;;;;;;;7.07;5.00;;;1.40;99.90;;;;;;5026357;28;20033;-86
2023/01/19 00:09:37;;;;;;;10.30;6.70;;;1.50;99.90;;;;;;5011991;28;20044;-84
2023/01/19 00:12:03;;;;;;;10.75;6.60;;;1.40;99.90;;;;;;5027015;28;20399;-82
2023/01/19 00:14:28;;;;;;;9.07;4.97;;;1.40;99.90;;;;;;5008388;28;20556;-83
2023/01/19 00:16:54;;;;;;;8.88;4.57;;;1.40;99.90;;;;;;5012349;28;20339;-84
2023/01/19 00:19:19;;;;;;;10.32;6.68;;;1.50;99.90;;;;;;5010919;28;20107;-84
2023/01/19 00:21:45;;;;;;;20.52;9.70;;;1.50;99.90;;;;;;5012248;28;20061;-83
2023/01/19 00:24:12;;;;;;;10.15;5.15;;;1.50;99.90;;;;;;4996874;28;20048;-84
2023/01/19 00:26:39;;;;;;;9.40;5.82;;;1.50;99.90;;;;;;5012362;28;20519;-84
2023/01/19 00:29:06;;;;;;;10.40;6.22;;;1.50;99.90;;;;;;5010034;28;20033;-83
2023/01/19 00:31:32;;;;;;;9.23;5.90;;;1.60;99.90;;;;;;5012287;28;20025;-84
2023/01/19 00:33:58;;;;;;;12.38;7.30;;;1.60;99.90;;;;;;5012747;28;20040;-84
2023/01/19 00:36:23;;;;;;;9.63;5.25;;;1.50;99.90;;;;;;4996995;28;20370;-83
2023/01/19 00:38:49;;;;;;;6.38;4.50;;;1.50;99.90;;;;;;5027544;28;20032;-85
2023/01/19 00:41:15;;;;;;;11.10;7.32;;;1.60;99.90;;;;;;5030664;28;20599;-83
2023/01/19 00:43:41;;;;;;;10.48;5.05;;;1.50;99.90;;;;;;5023371;28;20064;-83
2023/01/19 00:46:06;;;;;;;11.75;6.22;;;1.60;99.90;;;;;;5024432;28;20518;-83
2023/01/19 00:48:33;;;;;;;9.82;4.63;;;1.60;99.90;;;;;;4997309;28;20400;-84
2023/01/19 00:50:58;;;;;;;11.52;5.93;;;1.60;99.90;;;;;;5007144;28;20601;-80
2023/01/19 00:53:24;;;;;;;11.13;6.72;;;1.50;99.90;;;;;;5010869;28;20124;-86
2023/01/19 00:55:50;;;;;;;13.00;7.07;;;1.60;99.90;;;;;;5009615;28;20051;-83
2023/01/19 00:58:15;;;;;;;10.15;6.15;;;1.60;99.90;;;;;;5012459;28;20040;-83
2023/01/19 01:00:41;;;;;;;11.02;6.10;;;1.50;99.90;;;;;;4991719;28;20356;-84
2023/01/19 01:03:07;;;;;;;13.40;7.72;;;1.50;99.90;;;;;;5022003;28;20033;-84
2023/01/19 01:05:32;;;;;;;6.70;4.20;;;1.60;99.90;;;;;;5010681;28;20127;-83
2023/01/19 01:07:58;;;;;;;8.98;5.03;;;1.70;99.90;;;;;;5006121;28;20501;-84
2023/01/19 01:10:26;;;;;;;8.52;5.72;;;1.70;99.90;;;;;;5012487;28;20351;-83
2023/01/19 01:12:53;;;;;;;11.27;7.13;;;1.70;99.90;;;;;;4996827;28;20116;-85
2023/01/19 01:15:19;;;;;;;12.82;6.72;;;1.70;99.90;;;;;;5007569;28;20056;-84
2023/01/19 01:17:47;;;;;;;10.55;7.22;;;1.70;99.90;;;;;;4989932;28;20669;-84
2023/01/19 01:20:17;;;;;;;9.98;4.82;;;1.70;99.90;;;;;;4991591;28;20029;-84
2023/01/19 01:22:46;;;;;;;9.35;6.10;;;1.70;99.90;;;;;;5009113;28;20029;-84
2023/01/19 01:25:13;;;;;;;11.05;6.22;;;1.70;99.90;;;;;;5017927;28;20492;-84
2023/01/19 01:27:39;;;;;;;7.70;4.53;;;1.70;99.90;;;;;;5023261;28;20120;-84
2023/01/19 01:30:05;;;;;;;12.57;5.38;;;1.70;99.90;;;;;;4995891;28;20199;-85
2023/01/19 01:32:31;;;;;;;10.50;6.43;;;1.70;99.90;;;;;;5006699;28;20373;-84
2023/01/19 01:34:57;;;;;;;12.45;7.47;;;1.60;99.90;;;;;;5024697;28;20123;-83
2023/01/19 01:37:23;;;;;;;12.23;6.55;;;1.70;99.90;;;;;;5008879;28;20156;-84
2023/01/19 01:39:48;;;;;;;5.63;4.25;;;1.70;99.90;;;;;;5012673;28;20127;-84
2023/01/19 01:42:18;;;;;;;6.57;3.13;;;1.70;99.90;;;;;;4995742;28;20043;-85
2023/01/19 01:44:53;;;;;;;13.05;7.90;;;1.70;99.90;;;;;;4994379;28;20035;-84
2023/01/19 01:47:35;;;;;;;16.65;9.98;;;1.70;99.90;;;;;;5022249;28;20522;-84
2023/01/19 01:50:06;;;;;;;11.40;6.57;;;1.70;99.90;;;;;;5019181;28;20068;-84
2023/01/19 01:52:33;;;;;;;12.10;7.93;;;1.70;99.90;;;;;;5009899;28;20043;-84
2023/01/19 01:54:58;;;;;;;9.80;6.30;;;1.70;99.90;;;;;;4996281;28;20496;-84
2023/01/19 01:57:26;;;;;;;14.10;9.38;;;1.70;99.90;;;;;;5017182;28;20029;-84
2023/01/19 01:59:52;;;;;;;7.82;4.95;;;1.70;99.90;;;;;;5001905;28;20451;-85
2023/01/19 02:05:28;;;;;;;10.65;7.25;;;1.60;99.90;;;;;;5031155;28;20093;-84
2023/01/19 02:13:42;;;;;;;11.73;8.43;;;1.60;99.90;;;;;;5027704;28;20037;-86
2023/01/19 02:16:08;;;;;;;9.93;6.35;;;1.70;99.90;;;;;;4989903;28;20343;-84
2023/01/19 02:18:34;;;;;;;10.73;5.43;;;1.70;99.90;;;;;;4995978;28;20104;-85
2023/01/19 02:21:18;;;;;;;9.23;6.70;;;1.70;99.90;;;;;;5010515;28;20071;-83
2023/01/19 02:23:54;;;;;;;15.70;8.57;;;1.70;99.90;;;;;;5011858;28;20037;-85
2023/01/19 02:26:27;;;;;;;18.85;7.97;;;1.70;99.90;;;;;;4992454;28;20057;-85
2023/01/19 02:28:57;;;;;;;13.13;6.13;;;1.80;99.90;;;;;;5010786;28;20358;-84
2023/01/19 02:31:23;;;;;;;11.23;6.95;;;1.70;99.90;;;;;;5011203;28;20107;-85
2023/01/19 02:33:49;;;;;;;11.20;5.90;;;1.80;99.90;;;;;;5008526;28;20049;-85
2023/01/19 02:36:15;;;;;;;13.13;7.53;;;1.80;99.90;;;;;;5008744;28;20061;-85
2023/01/19 02:38:41;;;;;;;8.30;5.15;;;1.80;99.90;;;;;;5023793;28;20072;-84
2023/01/19 02:41:08;;;;;;;15.55;6.70;;;1.80;99.90;;;;;;5028329;28;20512;-85
2023/01/19 02:43:33;;;;;;;9.52;5.82;;;1.70;99.90;;;;;;4993885;28;20036;-85
2023/01/19 02:45:59;;;;;;;7.82;4.53;;;1.70;99.90;;;;;;5011687;28;20100;-85
2023/01/19 02:48:24;;;;;;;10.27;5.20;;;1.70;99.90;;;;;;4995405;28;22224;-85
2023/01/19 02:50:56;;;;;;;10.10;5.57;;;1.70;99.90;;;;;;5006538;28;20033;-83
2023/01/19 02:53:39;;;;;;;12.48;5.60;;;1.70;99.90;;;;;;5009765;28;20069;-84
2023/01/19 02:56:17;;;;;;;12.55;5.53;;;1.70;99.90;;;;;;5019931;28;20033;-84
2023/01/19 02:59:00;;;;;;;10.05;6.22;;;1.70;99.90;;;;;;5024809;28;20029;-84
2023/01/19 03:01:25;;;;;;;13.50;8.70;;;1.60;99.90;;;;;;5016843;28;21010;-85
2023/01/19 03:03:55;;;;;;;13.27;5.40;;;1.70;99.90;;;;;;5023834;28;20025;-85
2023/01/19 03:06:27;;;;;;;8.80;4.38;;;1.70;99.90;;;;;;5004332;28;20492;-85
2023/01/19 03:09:02;;;;;;;11.77;7.93;;;1.70;99.90;;;;;;5032232;28;20025;-85
2023/01/19 03:11:30;;;;;;;9.45;6.20;;;1.60;99.90;;;;;;4997800;28;20025;-85
2023/01/19 03:13:58;;;;;;;22.85;9.00;;;1.60;99.90;;;;;;5029726;28;20104;-83
2023/01/19 03:16:26;;;;;;;12.77;7.18;;;1.70;99.90;;;;;;4995561;28;20030;-84
2023/01/19 03:19:00;;;;;;;13.30;5.72;;;1.70;99.90;;;;;;5028422;28;20107;-84
2023/01/19 03:21:27;;;;;;;12.00;7.30;;;1.60;99.90;;;;;;5013616;28;21575;-83
2023/01/19 03:23:53;;;;;;;11.18;6.30;;;1.70;99.90;;;;;;4998485;28;20025;-85
2023/01/19 03:26:23;;;;;;;13.20;5.72;;;1.60;99.90;;;;;;5005081;28;20111;-86
2023/01/19 03:28:48;;;;;;;8.25;3.58;;;1.60;99.90;;;;;;5014784;28;20083;-84
2023/01/19 03:31:20;;;;;;;13.65;7.53;;;1.60;99.90;;;;;;5008829;28;20028;-85
2023/01/19 03:33:50;;;;;;;7.38;4.70;;;1.60;99.90;;;;;;5015019;28;20071;-84
2023/01/19 03:36:28;;;;;;;12.80;7.13;;;1.60;99.90;;;;;;5025740;28;20059;-85
2023/01/19 03:38:54;;;;;;;10.65;6.10;;;1.70;99.90;;;;;;5011513;28;20033;-85
2023/01/19 03:41:20;;;;;;;6.57;3.97;;;1.60;99.90;;;;;;5010976;28;20082;-85
2023/01/19 03:43:47;;;;;;;7.95;4.25;;;1.70;99.90;;;;;;5025833;28;20035;-85
2023/01/19 03:46:16;;;;;;;8.60;4.95;;;1.70;99.90;;;;;;4996586;28;20036;-84
2023/01/19 03:48:41;;;;;;;10.73;6.45;;;1.70;99.90;;;;;;5027299;28;20374;-85
2023/01/19 03:51:07;;;;;;;12.45;5.28;;;1.70;99.90;;;;;;4998003;28;20036;-83
2023/01/19 03:53:33;;;;;;;11.45;5.78;;;1.70;99.90;;;;;;4995730;28;20033;-85
2023/01/19 03:55:58;;;;;;;16.33;9.15;;;1.80;99.90;;;;;;5021247;28;20040;-84
2023/01/19 03:58:24;;;;;;;12.13;6.63;;;1.70;99.90;;;;;;4994139;28;20033;-84
2023/01/19 04:00:49;;;;;;;9.75;3.97;;;1.80;99.90;;;;;;5025555;28;20115;-85
2023/01/19 04:03:15;;;;;;;8.15;2.85;;;1.90;99.90;;;;;;4995499;28;20021;-85
2023/01/19 04:05:41;;;;;;;12.45;7.13;;;1.80;99.90;;;;;;5026906;28;20119;-86
2023/01/19 04:08:07;;;;;;;11.10;5.70;;;1.80;99.90;;;;;;4998280;28;20060;-86
2023/01/19 04:10:33;;;;;;;12.57;7.07;;;1.80;99.90;;;;;;5026743;28;20033;-84
2023/01/19 04:13:04;;;;;;;13.70;7.85;;;1.80;99.90;;;;;;4997646;28;20083;-85
2023/01/19 04:15:30;;;;;;;14.70;7.85;;;1.80;99.90;;;;;;4996538;28;20035;-87
2023/01/19 04:17:59;;;;;;;14.30;5.40;;;1.80;99.90;;;;;;4997651;28;20495;-85
2023/01/19 04:20:26;;;;;;;12.43;6.05;;;1.70;99.90;;;;;;5022099;28;20500;-84
2023/01/19 04:22:53;;;;;;;10.20;4.35;;;1.70;99.90;;;;;;5028193;28;20409;-85
2023/01/19 04:25:18;;;;;;;11.68;7.45;;;1.70;99.90;;;;;;4997054;28;20086;-87
2023/01/19 04:27:44;;;;;;;10.27;5.97;;;1.70;99.90;;;;;;4996788;28;20041;-86
2023/01/19 04:30:10;;;;;;;9.73;4.45;;;1.60;99.90;;;;;;5012214;28;20531;-84
2023/01/19 04:32:36;;;;;;;10.65;5.38;;;1.50;99.90;;;;;;5025286;28;20095;-86
2023/01/19 04:35:01;;;;;;;13.88;5.00;;;1.50;99.90;;;;;;5012141;28;20492;-87
2023/01/19 04:37:27;;;;;;;14.90;7.90;;;1.50;99.90;;;;;;4997885;28;20415;-88
2023/01/19 04:39:52;;;;;;;17.02;6.45;;;1.50;99.90;;;;;;5013694;28;20056;-85
2023/01/19 04:42:18;;;;;;;8.40;4.60;;;1.40;99.90;;;;;;5013447;28;20029;-86
2023/01/19 04:44:44;;;;;;;13.70;5.80;;;1.40;99.90;;;;;;4998457;28;20050;-86
2023/01/19 04:47:10;;;;;;;15.02;7.10;;;1.40;99.90;;;;;;5008662;28;20063;-88
2023/01/19 04:49:39;;;;;;;8.15;4.40;;;1.40;99.90;;;;;;4993661;28;20044;-86
2023/01/19 04:52:05;;;;;;;9.32;5.13;;;1.30;99.90;;;;;;4996439;28;20037;-89
2023/01/19 04:54:30;;;;;;;13.88;5.80;;;1.30;99.90;;;;;;5013391;28;20119;-87
2023/01/19 04:56:56;;;;;;;13.98;5.03;;;1.30;99.90;;;;;;5010620;28;20028;-86
2023/01/19 04:59:22;;;;;;;16.50;8.20;;;1.30;99.90;;;;;;4996540;28;20030;-86
2023/01/19 05:01:47;;;;;;;8.18;4.68;;;1.30;99.90;;;;;;5008546;28;20064;-88
2023/01/19 05:04:13;;;;;;;10.77;6.22;;;1.30;99.90;;;;;;4991232;28;20057;-87
2023/01/19 05:06:38;;;;;;;8.85;5.38;;;1.20;99.90;;;;;;4996702;28;20037;-86
2023/01/19 05:09:06;;;;;;;14.10;6.85;;;1.30;99.90;;;;;;4992650;28;20065;-86
2023/01/19 05:11:32;;;;;;;10.70;6.22;;;1.20;99.90;;;;;;5010323;28;20059;-88
2023/01/19 05:13:57;;;;;;;9.98;6.13;;;1.20;99.90;;;;;;4969730;28;20452;-86
2023/01/19 05:16:23;;;;;;;10.82;5.78;;;1.20;99.90;;;;;;5007994;28;20026;-87
2023/01/19 05:18:48;;;;;;;9.63;6.65;;;1.20;99.90;;;;;;4993003;28;20032;-83
2023/01/19 05:21:14;;;;;;;17.15;8.48;;;1.20;99.90;;;;;;5005015;28;20504;-86
2023/01/19 05:23:40;;;;;;;11.10;4.95;;;1.20;99.90;;;;;;4999708;28;20033;-86
2023/01/19 05:26:05;;;;;;;10.85;5.63;;;1.20;99.90;;;;;;4982554;28;20068;-83
2023/01/19 05:28:31;;;;;;;12.15;5.57;;;1.20;99.90;;;;;;4988843;28;20037;-87
2023/01/19 05:30:57;;;;;;;11.50;5.95;;;1.20;99.90;;;;;;4983166;28;20037;-83
2023/01/19 05:33:23;;;;;;;10.73;5.45;;;1.10;99.90;;;;;;4999385;28;20028;-86
2023/01/19 05:35:53;;;;;;;11.10;5.45;;;1.10;99.90;;;;;;5016418;28;20045;-86
2023/01/19 05:38:19;;;;;;;12.70;7.55;;;1.20;99.90;;;;;;5009001;28;20115;-86
2023/01/19 05:40:45;;;;;;;11.15;5.95;;;1.10;99.90;;;;;;5012780;28;20044;-86
2023/01/19 05:43:11;;;;;;;12.35;6.03;;;1.10;99.90;;;;;;5032222;28;20048;-86
2023/01/19 05:45:40;;;;;;;10.48;6.75;;;1.20;99.90;;;;;;4993972;28;20025;-84
2023/01/19 05:48:06;;;;;;;8.82;5.85;;;1.00;99.90;;;;;;5013185;28;20590;-86
2023/01/19 05:50:32;;;;;;;9.15;5.45;;;1.10;99.90;;;;;;4994537;28;20139;-86
2023/01/19 05:52:58;;;;;;;13.15;7.85;;;1.10;99.90;;;;;;5026051;28;20132;-86
2023/01/19 05:55:24;;;;;;;9.20;5.72;;;1.10;99.90;;;;;;4997580;28;20522;-86
2023/01/19 05:57:49;;;;;;;13.55;6.18;;;1.10;99.90;;;;;;5013790;28;20120;-85
2023/01/19 06:00:15;;;;;;;9.82;6.95;;;1.00;99.90;;;;;;4993116;28;20024;-84
2023/01/19 06:02:41;;;;;;;9.25;5.72;;;1.10;99.90;;;;;;5023341;28;20061;-85
2023/01/19 06:05:09;;;;;;;11.50;5.45;;;1.10;99.90;;;;;;5010332;28;20055;-86
2023/01/19 06:07:35;;;;;;;5.65;3.42;;;1.10;99.90;;;;;;5007249;28;20064;-87
2023/01/19 06:10:00;;;;;;;8.02;5.68;;;1.10;99.90;;;;;;4995426;28;20087;-86
2023/01/19 06:12:26;;;;;;;11.75;5.15;;;1.00;99.90;;;;;;5012600;28;20033;-86
2023/01/19 06:14:51;;;;;;;8.70;3.80;;;1.00;99.90;;;;;;5026049;28;20103;-85
2023/01/19 06:17:17;;;;;;;6.15;3.95;;;1.10;99.90;;;;;;5009645;28;20508;-87
2023/01/19 06:19:42;;;;;;;4.60;2.13;;;1.00;99.90;;;;;;5004996;28;20036;-87
2023/01/19 06:22:08;;;;;;;7.50;5.10;;;1.00;99.90;;;;;;5006023;28;20032;-86
2023/01/19 06:24:36;;;;;;;5.90;3.78;;;1.10;99.90;;;;;;5006719;28;20079;-85
2023/01/19 06:27:01;;;;;;;3.15;2.58;;;1.00;99.90;;;;;;4994603;28;20072;-86
2023/01/19 06:29:27;;;;;;;7.72;4.05;;;1.00;99.90;;;;;;5010087;28;20057;-86
2023/01/19 06:31:52;;;;;;;9.98;4.28;;;1.00;99.90;;;;;;4992617;28;20111;-86
2023/01/19 06:34:18;;;;;;;11.52;5.18;;;1.00;99.90;;;;;;5003405;28;20496;-85
2023/01/19 06:36:44;;;;;;;4.40;2.92;;;1.00;99.90;;;;;;4994785;28;20030;-86
2023/01/19 06:39:09;;;;;;;8.30;3.35;;;1.00;99.90;;;;;;5010278;28;20120;-85
2023/01/19 06:41:35;;;;;;;5.78;3.63;;;1.00;99.90;;;;;;5006226;28;20048;-86
2023/01/19 06:44:01;;;;;;;6.25;3.15;;;1.00;99.90;;;;;;4997708;28;20037;-86
2023/01/19 06:46:27;;;;;;;4.43;2.65;;;1.00;99.90;;;;;;5014108;28;20021;-86
2023/01/19 06:48:53;;;;;;;4.90;3.42;;;0.90;99.90;;;;;;5014119;28;20036;-86
2023/01/19 06:51:19;;;;;;;5.28;2.00;;;1.00;99.90;;;;;;4998237;28;20063;-87
2023/01/19 06:53:45;;;;;;;4.63;3.17;;;1.00;99.90;;;;;;5007445;28;20026;-86
2023/01/19 06:56:10;;;;;;;6.35;3.97;;;1.00;99.90;;;;;;4996740;28;20036;-86
2023/01/19 06:58:36;;;;;;;5.25;3.25;;;0.90;99.90;;;;;;5012220;28;20542;-87
2023/01/19 07:01:04;;;;;;;5.25;3.15;;;1.00;99.90;;;;;;5012662;28;20094;-87
2023/01/19 07:03:30;;;;;;;4.90;3.20;;;1.00;99.90;;;;;;5013699;28;20029;-86
2023/01/19 07:05:56;;;;;;;4.93;3.00;;;0.90;99.90;;;;;;5012079;28;20468;-86
2023/01/19 07:08:21;;;;;;;6.00;3.97;;;1.00;99.90;;;;;;5008676;28;20125;-86
2023/01/19 07:10:47;;;;;;;4.22;2.95;;;1.00;99.90;;;;;;4994344;28;20092;-86
2023/01/19 07:13:13;;;;;;;3.92;2.15;;;0.90;99.90;;;;;;5011557;28;20463;-86
2023/01/19 07:15:38;;;;;;;3.15;2.22;;;0.90;99.90;;;;;;5014430;28;20133;-87
2023/01/19 07:18:08;;;;;;;7.82;4.35;;;0.90;99.90;;;;;;5010218;28;20064;-86
2023/01/19 07:20:34;;;;;;;5.80;3.40;;;0.90;99.90;;;;;;4993583;28;20053;-87
2023/01/19 07:23:00;;;;;;;4.10;2.35;;;1.00;99.90;;;;;;4992729;28;20045;-85
2023/01/19 07:25:26;;;;;;;7.40;3.45;;;0.90;99.90;;;;;;4993894;28;20025;-85
2023/01/19 07:27:57;;;;;;;6.30;4.65;;;0.90;99.90;;;;;;5012354;28;20545;-85
2023/01/19 07:30:22;;;;;;;8.55;5.28;;;0.90;99.90;;;;;;4995160;28;20040;-85
2023/01/19 07:32:48;;;;;;;6.30;4.78;;;0.90;99.90;;;;;;5013061;28;20041;-85
2023/01/19 07:35:14;;;;;;;6.75;4.50;;;1.00;99.90;;;;;;5008043;28;20109;-85
2023/01/19 07:37:42;;;;;;;7.53;3.88;;;0.90;99.90;;;;;;5026181;28;20033;-84
2023/01/19 07:40:08;;;;;;;7.53;5.38;;;0.90;99.90;;;;;;5007302;28;20103;-86
2023/01/19 07:42:33;;;;;;;7.82;4.25;;;1.00;99.90;;;;;;5010499;28;20124;-87
2023/01/19 07:44:59;;;;;;;6.05;3.50;;;1.00;99.90;;;;;;5024561;28;20045;-86
2023/01/19 07:47:25;;;;;;;8.40;5.60;;;1.00;99.90;;;;;;4992517;28;20084;-88
2023/01/19 07:49:51;;;;;;;6.57;5.38;;;1.00;99.90;;;;;;5010326;28;20032;-88
2023/01/19 07:52:17;;;;;;;13.82;7.85;;;1.00;99.90;;;;;;4994157;28;20032;-88
2023/01/19 07:54:42;;;;;;;7.55;4.10;;;1.00;99.90;;;;;;4990522;28;20029;-87
2023/01/19 07:57:08;;;;;;;10.27;5.13;;;1.00;99.90;;;;;;5029693;28;20100;-87
2023/01/19 07:59:33;;;;;;;9.30;5.90;;;1.00;99.90;;;;;;4995317;28;20033;-88
2023/01/19 08:01:59;;;;;;;10.77;4.80;;;1.00;99.90;;;;;;5002710;28;20099;-88
2023/01/19 08:04:25;;;;;;;6.22;4.43;;;1.00;99.90;;;;;;5015094;28;20029;-88
2023/01/19 08:06:51;;;;;;;6.85;4.32;;;1.00;99.90;;;;;;5010843;28;20489;-88
2023/01/19 08:09:17;;;;;;;10.82;6.70;;;1.00;99.90;;;;;;5009921;28;20049;-88
2023/01/19 08:11:42;;;;;;;10.70;5.93;;;1.00;99.90;;;;;;4996535;28;20041;-87
2023/01/19 08:14:08;;;;;;;10.57;7.30;;;1.00;99.90;;;;;;5027382;28;20036;-88
2023/01/19 08:16:34;;;;;;;7.70;4.85;;;1.00;99.90;;;;;;5012608;28;20429;-87
2023/01/19 08:19:00;;;;;;;9.10;5.78;;;1.00;99.90;;;;;;5012058;28;20108;-87
2023/01/19 08:21:26;;;;;;;10.20;5.90;;;1.00;99.90;;;;;;4990794;28;20120;-87
2023/01/19 08:23:53;;;;;;;12.95;8.15;;;1.00;99.90;;;;;;4997061;28;20079;-88
2023/01/19 08:26:32;;;;;;;15.40;5.65;;;1.00;99.90;;;;;;4994301;28;20075;-88
2023/01/19 08:28:59;;;;;;;5.85;2.97;;;1.00;99.90;;;;;;4998642;28;20039;-87
2023/01/19 08:31:25;;;;;;;12.40;7.00;;;1.10;99.90;;;;;;5004011;28;20037;-88
2023/01/19 08:33:50;;;;;;;9.10;5.75;;;1.10;99.90;;;;;;5007275;28;20043;-91
2023/01/19 08:36:16;;;;;;;12.93;7.35;;;1.00;99.90;;;;;;4992728;28;20040;-87
2023/01/19 08:38:46;;;;;;;7.30;4.20;;;1.00;99.90;;;;;;5006408;28;20438;-87
2023/01/19 08:41:12;;;;;;;10.18;5.57;;;1.00;99.90;;;;;;5014375;28;20025;-86
2023/01/19 08:43:37;;;;;;;8.05;3.88;;;1.10;99.90;;;;;;5007145;28;20037;-85
2023/01/19 08:46:03;;;;;;;10.52;5.32;;;1.10;99.90;;;;;;5008454;28;20041;-87
2023/01/19 08:48:29;;;;;;;14.15;6.38;;;1.10;99.90;;;;;;4996715;28;20068;-86
2023/01/19 08:50:54;;;;;;;16.42;10.10;;;1.10;99.90;;;;;;5025779;28;20033;-86
2023/01/19 08:53:22;;;;;;;9.23;5.72;;;1.10;99.90;;;;;;4990482;28;20032;-86
2023/01/19 08:55:48;;;;;;;9.40;6.47;;;1.10;99.90;;;;;;4985437;28;20030;-86
2023/01/19 08:58:13;;;;;;;21.60;12.35;;;1.10;99.90;;;;;;5009460;28;20068;-86
2023/01/19 09:00:39;;;;;;;19.15;10.82;;;1.10;99.90;;;;;;5011190;28;20033;-86
2023/01/19 09:03:06;;;;;;;15.45;7.82;;;1.20;99.90;;;;;;5012246;28;20064;-85
2023/01/19 09:05:35;;;;;;;18.80;9.50;;;1.20;99.90;;;;;;4991747;28;20056;-86
2023/01/19 09:08:06;;;;;;;15.75;8.38;;;1.10;99.90;;;;;;5006633;28;20558;-86
2023/01/19 09:10:34;;;;;;;10.43;6.40;;;1.10;99.90;;;;;;5010582;28;20037;-87
2023/01/19 09:13:06;;;;;;;16.33;10.95;;;1.20;99.90;;;;;;5011911;28;20029;-86
2023/01/19 09:15:34;;;;;;;11.98;6.20;;;1.10;99.90;;;;;;5014630;28;20115;-88
2023/01/19 09:18:00;;;;;;;12.85;7.80;;;1.20;99.90;;;;;;4995577;28;20056;-88
2023/01/19 09:20:27;;;;;;;13.90;7.95;;;1.10;99.90;;;;;;4970123;28;20079;-88
2023/01/19 09:22:54;;;;;;;19.58;10.95;;;1.10;99.90;;;;;;4994046;28;20108;-86
2023/01/19 09:25:20;;;;;;;14.50;7.63;;;1.20;99.90;;;;;;5022185;28;20033;-84
2023/01/19 09:27:45;;;;;;;18.10;11.82;;;1.10;99.90;;;;;;4994065;28;20045;-86
2023/01/19 09:30:11;;;;;;;16.52;9.50;;;1.20;99.90;;;;;;4994478;28;20059;-85
2023/01/19 09:32:37;;;;;;;20.25;11.07;;;1.20;99.90;;;;;;4997407;28;20036;-86
2023/01/19 09:35:03;;;;;;;13.57;9.05;;;1.20;99.90;;;;;;4992787;28;20029;-86
2023/01/19 09:37:28;;;;;;;22.15;12.27;;;1.20;99.90;;;;;;5029134;28;20040;-87
2023/01/19 09:39:55;;;;;;;22.15;13.25;;;1.20;99.90;;;;;;4992308;28;20060;-87
2023/01/19 09:42:30;;;;;;;23.75;13.20;;;1.20;99.90;;;;;;5026279;28;20033;-87
2023/01/19 09:44:55;;;;;;;27.10;16.47;;;1.30;99.90;;;;;;5010763;28;20037;-87
2023/01/19 09:47:24;;;;;;;14.57;9.60;;;1.30;99.90;;;;;;5006526;28;20041;-87
2023/01/19 09:50:04;;;;;;;17.38;8.27;;;1.30;99.90;;;;;;5009921;28;20033;-85
2023/01/19 09:52:30;;;;;;;10.20;6.25;;;1.30;99.90;;;;;;5009234;28;20028;-87
2023/01/19 09:54:56;;;;;;;14.93;8.88;;;1.30;99.90;;;;;;4988531;28;20033;-87
2023/01/19 09:57:23;;;;;;;17.63;7.25;;;1.40;99.90;;;;;;5007010;28;20083;-87
2023/01/19 09:59:50;;;;;;;18.98;14.02;;;1.40;99.90;;;;;;4993098;28;20048;-86
2023/01/19 10:02:24;;;;;;;15.40;7.38;;;1.40;99.90;;;;;;5006296;28;20031;-89
2023/01/19 10:05:15;;;;;;;15.70;9.05;;;1.40;99.90;;;;;;5042869;28;20034;-87
2023/01/19 10:08:02;;;;;;;13.07;7.07;;;1.40;99.90;;;;;;5010665;28;20041;-86
2023/01/19 10:10:29;;;;;;;15.88;8.27;;;1.40;99.90;;;;;;5043525;28;20116;-87
2023/01/19 10:13:16;;;;;;;16.42;8.82;;;1.40;99.90;;;;;;4995275;28;20059;-86
2023/01/19 10:16:00;;;;;;;;;;;1.50;99.90;;;;;;5045951;28;20038;-87
2023/01/19 10:18:33;;;;;;;18.40;10.98;;;1.50;99.90;;;;;;5016967;28;19909;-86
2023/01/19 10:21:11;;;;;;;13.45;7.88;;;1.50;99.90;;;;;;5010515;28;20034;-87
2023/01/19 10:23:45;;;;;;;16.63;8.77;;;1.50;99.90;;;;;;4993884;28;20116;-86
2023/01/19 10:26:33;;;;;;;11.27;6.00;;;1.50;99.90;;;;;;5026735;28;20047;-85
2023/01/19 10:29:34;;;;;;;23.25;11.00;;;1.60;99.90;;;;;;5026172;28;20131;-86
2023/01/19 10:32:21;;;;;;;20.45;12.32;;;1.70;99.90;;;;;;5006494;28;20033;-86
2023/01/19 10:34:48;;;;;;;25.65;11.13;;;1.70;99.90;;;;;;5004885;28;20040;-86
2023/01/19 10:37:16;;;;;;;34.13;18.83;;;1.60;99.90;;;;;;5011461;28;20480;-88
2023/01/19 10:39:53;;;;;;;26.75;14.05;;;1.70;99.90;;;;;;5021380;28;20059;-88
2023/01/19 10:42:20;;;;;;;23.90;12.98;;;1.80;99.90;;;;;;5008680;28;20029;-87
2023/01/19 10:44:45;;;;;;;18.92;9.35;;;1.70;99.90;;;;;;5008296;28;20028;-84
2023/01/19 10:47:19;;;;;;;22.95;12.00;;;1.70;99.90;;;;;;5003416;28;20057;-87
2023/01/19 10:49:44;;;;;;;25.00;6.65;;;1.80;99.90;;;;;;4988940;28;20056;-81
2023/01/19 10:52:35;;;;;;;28.00;12.15;;;1.80;99.90;;;;;;4990876;28;20057;-81
2023/01/19 10:55:02;;;;;;;24.20;12.13;;;1.80;99.90;;;;;;5006565;28;20211;-81
2023/01/19 10:57:31;;;;;;;17.58;7.05;;;1.80;99.90;;;;;;5018965;28;20056;-81
2023/01/19 10:59:57;;;;;;;38.17;18.10;;;1.90;99.90;;;;;;4988734;28;20040;-82
2023/01/19 11:02:27;;;;;;;42.00;20.08;;;1.90;99.90;;;;;;5022909;28;20026;-82
2023/01/19 11:04:59;;;;;;;38.47;20.13;;;2.00;99.90;;;;;;4993626;28;20037;-81
2023/01/19 11:07:25;;;;;;;15.73;8.90;;;2.10;99.90;;;;;;4991032;28;20052;-81
2023/01/19 11:10:16;;;;;;;31.45;16.73;;;2.10;99.90;;;;;;5026257;28;20033;-81
2023/01/19 11:13:02;;;;;;;39.97;19.52;;;2.10;99.90;;;;;;5012064;28;20392;-81
2023/01/19 11:15:39;;;;;;;37.10;18.17;;;2.10;99.90;;;;;;5007231;28;20456;-81
2023/01/19 11:18:05;;;;;;;17.95;9.18;;;2.20;99.90;;;;;;5019380;28;20122;-81
2023/01/19 11:20:45;;;;;;;18.10;8.15;;;2.20;99.90;;;;;;5008643;28;20060;-81
2023/01/19 11:23:33;;;;;;;28.60;14.07;;;2.20;99.90;;;;;;5023708;28;20496;-81
2023/01/19 11:26:00;;;;;;;25.73;10.40;;;2.20;99.90;;;;;;5011511;28;20038;-82
2023/01/19 11:28:47;;;;;;;50.92;16.45;;;2.30;99.90;;;;;;4977306;28;20030;-82
2023/01/19 11:31:12;;;;;;;16.08;7.40;;;2.20;99.90;;;;;;4991588;28;20033;-82
2023/01/19 11:33:51;;;;;;;35.47;17.02;;;2.30;99.90;;;;;;5027705;28;20041;-83
2023/01/19 11:36:19;;;;;;;34.05;11.85;;;2.30;99.90;;;;;;4999260;28;20025;-82
2023/01/19 11:38:47;;;;;;;27.38;11.32;;;2.30;99.90;;;;;;5014592;28;20725;-82
2023/01/19 11:41:20;;;;;;;43.25;20.08;;;2.30;99.90;;;;;;5011094;28;20029;-82
2023/01/19 11:43:53;;;;;;;45.38;22.00;;;2.30;99.90;;;;;;5032893;28;20029;-83
2023/01/19 11:46:22;;;;;;;37.33;20.45;;;2.30;99.90;;;;;;4997307;28;20480;-83
2023/01/19 11:48:56;;;;;;;37.75;17.27;;;2.30;99.90;;;;;;4994803;28;20405;-83
2023/01/19 11:51:21;;;;;;;7.28;5.00;;;2.30;99.90;;;;;;5013694;28;20037;-82
2023/01/19 11:53:50;;;;;;;43.92;20.80;;;2.30;99.90;;;;;;5015598;28;20094;-82
2023/01/19 11:56:16;;;;;;;30.60;15.60;;;2.30;99.90;;;;;;5015507;28;20479;-82
2023/01/19 11:58:45;;;;;;;31.45;15.95;;;2.30;99.90;;;;;;5013132;28;20035;-82
2023/01/19 12:01:21;;;;;;;25.27;12.68;;;2.30;99.90;;;;;;5012225;28;20526;-82
2023/01/19 12:03:53;;;;;;;25.40;10.65;;;2.40;99.90;;;;;;5014817;28;20107;-82
2023/01/19 12:06:22;;;;;;;54.92;22.20;;;2.30;99.90;;;;;;4997385;28;20044;-82
2023/01/19 12:08:59;;;;;;;30.27;12.68;;;2.30;99.90;;;;;;4995948;28;20039;-82
2023/01/19 12:11:29;;;;;;;29.60;15.45;;;2.40;99.90;;;;;;5025207;28;20057;-82
2023/01/19 12:13:54;;;;;;;25.35;11.57;;;2.40;99.90;;;;;;4998177;28;20051;-83
2023/01/19 12:16:26;;;;;;;16.80;8.98;;;2.40;99.90;;;;;;5012847;28;20033;-82
2023/01/19 12:19:02;;;;;;;24.25;12.30;;;2.40;99.90;;;;;;5011953;28;20065;-83
2023/01/19 12:21:27;;;;;;;19.70;7.72;;;2.40;99.90;;;;;;5012011;28;20100;-82
2023/01/19 12:24:06;;;;;;;49.92;23.98;;;2.50;99.90;;;;;;4995275;28;20028;-82
2023/01/19 12:26:37;;;;;;;27.90;14.10;;;2.50;99.90;;;;;;5007117;28;20041;-82
2023/01/19 12:29:12;;;;;;;16.60;8.32;;;2.50;99.90;;;;;;4994464;28;20044;-83
2023/01/19 12:31:39;;;;;;;22.65;9.82;;;2.60;99.90;;;;;;5008391;28;20032;-82
2023/01/19 12:34:29;;;;;;;47.92;21.80;;;2.50;99.90;;;;;;4995127;28;20527;-82
2023/01/19 12:36:58;;;;;;;28.20;14.13;;;2.60;99.90;;;;;;5008673;28;20424;-82
2023/01/19 12:39:25;;;;;;;37.40;15.68;;;2.60;99.90;;;;;;5004644;28;20028;-82
2023/01/19 12:42:13;;;;;;;57.70;26.63;;;2.60;99.90;;;;;;5028298;28;20515;-82
2023/01/19 12:44:39;;;;;;;48.80;23.25;;;2.60;99.90;;;;;;5005764;28;20149;-82
2023/01/19 12:47:11;;;;;;;48.78;22.80;;;2.60;99.90;;;;;;5010435;28;20120;-82
2023/01/19 12:49:37;;;;;;;43.10;18.33;;;2.50;99.90;;;;;;5029172;28;20033;-82
2023/01/19 12:52:18;;;;;;;33.75;15.23;;;2.60;99.90;;;;;;5026734;28;20373;-83
2023/01/19 12:54:49;;;;;;;38.35;18.45;;;2.70;99.90;;;;;;5018759;28;20508;-82
2023/01/19 12:57:37;;;;;;;42.25;18.25;;;2.80;99.90;;;;;;5029583;28;20579;-83
2023/01/19 13:00:22;;;;;;;30.02;15.27;;;2.80;99.90;;;;;;5009845;28;20534;-82
2023/01/19 13:02:48;;;;;;;48.65;22.05;;;2.80;99.90;;;;;;5013848;28;20029;-82
2023/01/19 13:05:32;;;;;;;39.63;16.88;;;2.90;99.90;;;;;;5028731;28;20060;-83